sensor_id;sensor_type;location;lat;lon;timestamp;P1;durP1;ratioP1;P2;durP2;ratioP2
8113;SDS011;4099;52.684;9.918;2022-08-27T00:04:19;14.70;;;8.10;;
8113;SDS011;4099;52.684;9.918;2022-08-27T00:09:21;11.13;;;8.27;;
8113;SDS011;4099;52.684;9.918;2022-08-27T00:14:25;12.43;;;8.50;;
8113;SDS011;4099;52.684;9.918;2022-08-27T00:19:28;11.37;;;8.47;;
8113;SDS011;4099;52.684;9.918;2022-08-27T00:24:30;12.63;;;7.97;;
8113;SDS011;4099;52.684;9.918;2022-08-27T00:29:33;11.87;;;8.13;;
8113;SDS011;4099;52.684;9.918;2022-08-27T00:34:35;12.47;;;7.70;;
8113;SDS011;4099;52.684;9.918;2022-08-27T00:39:36;12.00;;;7.43;;
8113;SDS011;4099;52.684;9.918;2022-08-27T00:44:40;14.63;;;7.70;;
8113;SDS011;4099;52.684;9.918;2022-08-27T00:49:43;10.23;;;7.30;;
8113;SDS011;4099;52.684;9.918;2022-08-27T00:54:47;14.67;;;8.20;;
8113;SDS011;4099;52.684;9.918;2022-08-27T00:59:50;12.83;;;7.90;;
8113;SDS011;4099;52.684;9.918;2022-08-27T01:04:53;13.73;;;7.43;;
8113;SDS011;4099;52.684;9.918;2022-08-27T01:09:58;18.63;;;7.70;;
8113;SDS011;4099;52.684;9.918;2022-08-27T01:15:05;13.33;;;7.57;;
8113;SDS011;4099;52.684;9.918;2022-08-27T01:20:11;13.17;;;8.07;;
8113;SDS011;4099;52.684;9.918;2022-08-27T01:25:19;13.03;;;7.97;;
8113;SDS011;4099;52.684;9.918;2022-08-27T01:30:23;12.93;;;7.77;;
8113;SDS011;4099;52.684;9.918;2022-08-27T01:35:25;13.53;;;7.33;;
8113;SDS011;4099;52.684;9.918;2022-08-27T01:40:28;15.57;;;8.10;;
8113;SDS011;4099;52.684;9.918;2022-08-27T01:45:30;11.43;;;7.50;;
8113;SDS011;4099;52.684;9.918;2022-08-27T01:50:37;13.57;;;7.33;;
8113;SDS011;4099;52.684;9.918;2022-08-27T01:55:42;11.43;;;7.63;;
8113;SDS011;4099;52.684;9.918;2022-08-27T02:00:45;11.73;;;7.93;;
8113;SDS011;4099;52.684;9.918;2022-08-27T02:05:49;13.80;;;7.20;;
8113;SDS011;4099;52.684;9.918;2022-08-27T02:10:53;11.63;;;7.43;;
8113;SDS011;4099;52.684;9.918;2022-08-27T02:15:55;14.17;;;8.90;;
8113;SDS011;4099;52.684;9.918;2022-08-27T02:20:56;10.73;;;7.87;;
8113;SDS011;4099;52.684;9.918;2022-08-27T02:25:59;11.83;;;8.03;;
8113;SDS011;4099;52.684;9.918;2022-08-27T02:31:01;10.00;;;7.47;;
8113;SDS011;4099;52.684;9.918;2022-08-27T02:36:03;12.13;;;7.30;;
8113;SDS011;4099;52.684;9.918;2022-08-27T02:41:07;12.57;;;7.20;;
8113;SDS011;4099;52.684;9.918;2022-08-27T02:46:09;14.50;;;7.37;;
8113;SDS011;4099;52.684;9.918;2022-08-27T02:51:11;13.03;;;7.13;;
8113;SDS011;4099;52.684;9.918;2022-08-27T02:56:14;12.97;;;6.83;;
8113;SDS011;4099;52.684;9.918;2022-08-27T03:01:16;12.73;;;7.23;;
8113;SDS011;4099;52.684;9.918;2022-08-27T03:06:17;10.30;;;6.50;;
8113;SDS011;4099;52.684;9.918;2022-08-27T03:11:21;12.37;;;6.63;;
8113;SDS011;4099;52.684;9.918;2022-08-27T03:16:23;8.10;;;6.40;;
8113;SDS011;4099;52.684;9.918;2022-08-27T03:21:25;11.90;;;6.80;;
8113;SDS011;4099;52.684;9.918;2022-08-27T03:26:28;10.70;;;6.30;;
8113;SDS011;4099;52.684;9.918;2022-08-27T03:31:30;10.83;;;7.00;;
8113;SDS011;4099;52.684;9.918;2022-08-27T03:36:32;12.37;;;6.77;;
8113;SDS011;4099;52.684;9.918;2022-08-27T03:41:35;10.03;;;6.30;;
8113;SDS011;4099;52.684;9.918;2022-08-27T03:46:37;9.73;;;5.80;;
8113;SDS011;4099;52.684;9.918;2022-08-27T03:51:39;11.17;;;5.97;;
8113;SDS011;4099;52.684;9.918;2022-08-27T03:56:42;9.17;;;6.00;;
8113;SDS011;4099;52.684;9.918;2022-08-27T04:01:44;8.33;;;6.23;;
8113;SDS011;4099;52.684;9.918;2022-08-27T04:06:46;12.13;;;6.33;;
8113;SDS011;4099;52.684;9.918;2022-08-27T04:11:49;6.77;;;5.37;;
8113;SDS011;4099;52.684;9.918;2022-08-27T04:16:51;7.17;;;5.80;;
8113;SDS011;4099;52.684;9.918;2022-08-27T04:21:53;8.03;;;5.77;;
8113;SDS011;4099;52.684;9.918;2022-08-27T04:27:01;10.83;;;5.13;;
8113;SDS011;4099;52.684;9.918;2022-08-27T04:32:03;8.87;;;5.30;;
8113;SDS011;4099;52.684;9.918;2022-08-27T04:37:05;8.93;;;4.93;;
8113;SDS011;4099;52.684;9.918;2022-08-27T04:42:08;7.47;;;4.90;;
8113;SDS011;4099;52.684;9.918;2022-08-27T04:47:10;8.67;;;5.13;;
8113;SDS011;4099;52.684;9.918;2022-08-27T04:52:12;8.10;;;5.40;;
8113;SDS011;4099;52.684;9.918;2022-08-27T04:57:16;6.37;;;4.87;;
8113;SDS011;4099;52.684;9.918;2022-08-27T05:02:18;8.43;;;5.67;;
8113;SDS011;4099;52.684;9.918;2022-08-27T05:07:20;10.97;;;5.63;;
8113;SDS011;4099;52.684;9.918;2022-08-27T05:12:23;9.33;;;5.07;;
8113;SDS011;4099;52.684;9.918;2022-08-27T05:23:04;10.93;;;5.50;;
8113;SDS011;4099;52.684;9.918;2022-08-27T05:28:07;12.40;;;6.93;;
8113;SDS011;4099;52.684;9.918;2022-08-27T05:33:09;8.80;;;6.50;;
8113;SDS011;4099;52.684;9.918;2022-08-27T05:38:11;14.50;;;6.13;;
8113;SDS011;4099;52.684;9.918;2022-08-27T05:43:16;9.00;;;5.93;;
8113;SDS011;4099;52.684;9.918;2022-08-27T05:48:18;10.63;;;5.37;;
8113;SDS011;4099;52.684;9.918;2022-08-27T05:53:20;9.83;;;5.83;;
8113;SDS011;4099;52.684;9.918;2022-08-27T05:58:23;11.07;;;5.77;;
8113;SDS011;4099;52.684;9.918;2022-08-27T06:03:43;8.13;;;4.93;;
8113;SDS011;4099;52.684;9.918;2022-08-27T06:08:45;8.60;;;5.50;;
8113;SDS011;4099;52.684;9.918;2022-08-27T06:13:48;8.17;;;5.00;;
8113;SDS011;4099;52.684;9.918;2022-08-27T06:18:50;8.00;;;5.10;;
8113;SDS011;4099;52.684;9.918;2022-08-27T06:23:52;7.33;;;4.67;;
8113;SDS011;4099;52.684;9.918;2022-08-27T06:29:00;7.97;;;4.93;;
8113;SDS011;4099;52.684;9.918;2022-08-27T06:34:04;5.73;;;4.43;;
8113;SDS011;4099;52.684;9.918;2022-08-27T06:39:07;8.50;;;4.50;;
8113;SDS011;4099;52.684;9.918;2022-08-27T06:44:14;7.10;;;4.53;;
8113;SDS011;4099;52.684;9.918;2022-08-27T06:49:15;10.13;;;4.83;;
8113;SDS011;4099;52.684;9.918;2022-08-27T06:54:17;6.60;;;4.53;;
8113;SDS011;4099;52.684;9.918;2022-08-27T06:59:21;10.10;;;5.70;;
8113;SDS011;4099;52.684;9.918;2022-08-27T07:04:23;10.30;;;5.10;;
8113;SDS011;4099;52.684;9.918;2022-08-27T07:09:25;8.60;;;4.67;;
8113;SDS011;4099;52.684;9.918;2022-08-27T07:14:31;8.60;;;5.27;;
8113;SDS011;4099;52.684;9.918;2022-08-27T07:19:34;7.03;;;5.03;;
8113;SDS011;4099;52.684;9.918;2022-08-27T07:24:37;9.20;;;4.97;;
8113;SDS011;4099;52.684;9.918;2022-08-27T07:29:40;10.07;;;5.43;;
8113;SDS011;4099;52.684;9.918;2022-08-27T07:34:42;8.47;;;4.90;;
8113;SDS011;4099;52.684;9.918;2022-08-27T07:39:43;7.77;;;5.07;;
8113;SDS011;4099;52.684;9.918;2022-08-27T07:57:23;7.87;;;5.20;;
8113;SDS011;4099;52.684;9.918;2022-08-27T08:02:35;6.77;;;4.70;;
8113;SDS011;4099;52.684;9.918;2022-08-27T08:07:42;6.37;;;5.17;;
8113;SDS011;4099;52.684;9.918;2022-08-27T08:12:57;7.53;;;4.70;;
8113;SDS011;4099;52.684;9.918;2022-08-27T08:18:10;6.83;;;4.80;;
8113;SDS011;4099;52.684;9.918;2022-08-27T08:23:16;7.73;;;4.73;;
8113;SDS011;4099;52.684;9.918;2022-08-27T08:28:24;7.10;;;4.77;;
8113;SDS011;4099;52.684;9.918;2022-08-27T08:33:28;7.03;;;4.60;;
8113;SDS011;4099;52.684;9.918;2022-08-27T08:38:33;7.20;;;4.53;;
8113;SDS011;4099;52.684;9.918;2022-08-27T08:43:43;9.53;;;4.60;;
8113;SDS011;4099;52.684;9.918;2022-08-27T08:48:57;4.90;;;4.40;;
8113;SDS011;4099;52.684;9.918;2022-08-27T08:54:13;5.57;;;4.23;;
8113;SDS011;4099;52.684;9.918;2022-08-27T08:59:25;7.93;;;4.50;;
8113;SDS011;4099;52.684;9.918;2022-08-27T09:04:40;6.27;;;4.43;;
8113;SDS011;4099;52.684;9.918;2022-08-27T09:09:45;7.37;;;4.10;;
8113;SDS011;4099;52.684;9.918;2022-08-27T09:14:59;8.50;;;4.50;;
8113;SDS011;4099;52.684;9.918;2022-08-27T09:20:20;6.60;;;4.37;;
8113;SDS011;4099;52.684;9.918;2022-08-27T09:25:25;7.60;;;4.10;;
8113;SDS011;4099;52.684;9.918;2022-08-27T09:30:40;6.70;;;4.30;;
8113;SDS011;4099;52.684;9.918;2022-08-27T09:35:45;7.33;;;4.30;;
8113;SDS011;4099;52.684;9.918;2022-08-27T09:40:52;6.60;;;4.07;;
8113;SDS011;4099;52.684;9.918;2022-08-27T09:46:13;7.53;;;4.10;;
8113;SDS011;4099;52.684;9.918;2022-08-27T09:51:22;7.97;;;4.30;;
8113;SDS011;4099;52.684;9.918;2022-08-27T09:56:34;6.20;;;3.93;;
8113;SDS011;4099;52.684;9.918;2022-08-27T10:01:50;6.73;;;4.10;;
8113;SDS011;4099;52.684;9.918;2022-08-27T10:06:57;6.80;;;4.57;;
8113;SDS011;4099;52.684;9.918;2022-08-27T10:12:21;7.93;;;4.33;;
8113;SDS011;4099;52.684;9.918;2022-08-27T10:17:53;5.43;;;3.80;;
8113;SDS011;4099;52.684;9.918;2022-08-27T10:28:36;8.77;;;4.40;;
8113;SDS011;4099;52.684;9.918;2022-08-27T10:34:02;5.80;;;3.70;;
8113;SDS011;4099;52.684;9.918;2022-08-27T10:39:35;5.13;;;4.20;;
8113;SDS011;4099;52.684;9.918;2022-08-27T10:44:54;7.97;;;4.33;;
8113;SDS011;4099;52.684;9.918;2022-08-27T10:50:36;8.97;;;4.50;;
8113;SDS011;4099;52.684;9.918;2022-08-27T10:55:47;4.27;;;3.67;;
8113;SDS011;4099;52.684;9.918;2022-08-27T11:01:02;7.07;;;4.30;;
8113;SDS011;4099;52.684;9.918;2022-08-27T11:06:25;5.67;;;3.77;;
8113;SDS011;4099;52.684;9.918;2022-08-27T11:11:43;5.80;;;4.10;;
8113;SDS011;4099;52.684;9.918;2022-08-27T11:16:54;5.07;;;3.50;;
8113;SDS011;4099;52.684;9.918;2022-08-27T11:22:07;5.33;;;3.30;;
8113;SDS011;4099;52.684;9.918;2022-08-27T11:27:19;7.17;;;3.53;;
8113;SDS011;4099;52.684;9.918;2022-08-27T11:32:34;4.50;;;3.07;;
8113;SDS011;4099;52.684;9.918;2022-08-27T11:37:59;4.93;;;3.17;;
8113;SDS011;4099;52.684;9.918;2022-08-27T11:43:29;6.23;;;3.20;;
8113;SDS011;4099;52.684;9.918;2022-08-27T11:48:39;3.90;;;2.57;;
8113;SDS011;4099;52.684;9.918;2022-08-27T11:53:57;4.77;;;3.10;;
8113;SDS011;4099;52.684;9.918;2022-08-27T11:59:10;4.37;;;3.30;;
8113;SDS011;4099;52.684;9.918;2022-08-27T12:04:37;5.47;;;3.00;;
8113;SDS011;4099;52.684;9.918;2022-08-27T12:09:55;6.37;;;3.00;;
8113;SDS011;4099;52.684;9.918;2022-08-27T12:15:17;7.07;;;2.93;;
8113;SDS011;4099;52.684;9.918;2022-08-27T12:20:24;5.57;;;2.63;;
8113;SDS011;4099;52.684;9.918;2022-08-27T12:25:38;4.37;;;2.63;;
8113;SDS011;4099;52.684;9.918;2022-08-27T12:30:46;5.03;;;2.80;;
8113;SDS011;4099;52.684;9.918;2022-08-27T12:35:54;5.57;;;2.70;;
8113;SDS011;4099;52.684;9.918;2022-08-27T12:41:12;4.53;;;2.73;;
8113;SDS011;4099;52.684;9.918;2022-08-27T12:46:41;5.00;;;2.90;;
8113;SDS011;4099;52.684;9.918;2022-08-27T12:51:49;6.20;;;3.10;;
8113;SDS011;4099;52.684;9.918;2022-08-27T12:57:00;2.87;;;2.33;;
8113;SDS011;4099;52.684;9.918;2022-08-27T13:02:17;5.27;;;2.93;;
8113;SDS011;4099;52.684;9.918;2022-08-27T13:07:37;5.87;;;2.93;;
8113;SDS011;4099;52.684;9.918;2022-08-27T13:12:59;5.20;;;2.97;;
8113;SDS011;4099;52.684;9.918;2022-08-27T13:18:10;6.37;;;3.20;;
8113;SDS011;4099;52.684;9.918;2022-08-27T13:23:15;5.43;;;2.63;;
8113;SDS011;4099;52.684;9.918;2022-08-27T13:28:23;3.80;;;2.47;;
8113;SDS011;4099;52.684;9.918;2022-08-27T13:33:34;3.40;;;2.37;;
8113;SDS011;4099;52.684;9.918;2022-08-27T13:38:39;5.67;;;2.40;;
8113;SDS011;4099;52.684;9.918;2022-08-27T13:43:57;6.17;;;2.70;;
8113;SDS011;4099;52.684;9.918;2022-08-27T13:49:11;3.70;;;2.00;;
8113;SDS011;4099;52.684;9.918;2022-08-27T13:54:25;5.20;;;2.37;;
8113;SDS011;4099;52.684;9.918;2022-08-27T13:59:30;4.83;;;2.30;;
8113;SDS011;4099;52.684;9.918;2022-08-27T14:04:34;4.90;;;2.37;;
8113;SDS011;4099;52.684;9.918;2022-08-27T14:09:54;6.20;;;2.40;;
8113;SDS011;4099;52.684;9.918;2022-08-27T14:15:14;5.97;;;2.30;;
8113;SDS011;4099;52.684;9.918;2022-08-27T14:20:21;7.90;;;2.60;;
8113;SDS011;4099;52.684;9.918;2022-08-27T14:25:26;3.37;;;2.07;;
8113;SDS011;4099;52.684;9.918;2022-08-27T14:30:36;3.90;;;1.97;;
8113;SDS011;4099;52.684;9.918;2022-08-27T14:35:46;4.80;;;2.13;;
8113;SDS011;4099;52.684;9.918;2022-08-27T14:40:59;6.60;;;2.30;;
8113;SDS011;4099;52.684;9.918;2022-08-27T14:46:09;5.50;;;2.30;;
8113;SDS011;4099;52.684;9.918;2022-08-27T14:51:19;6.03;;;2.13;;
8113;SDS011;4099;52.684;9.918;2022-08-27T14:56:25;7.20;;;2.23;;
8113;SDS011;4099;52.684;9.918;2022-08-27T15:01:36;5.80;;;2.00;;
8113;SDS011;4099;52.684;9.918;2022-08-27T15:06:40;6.87;;;2.63;;
8113;SDS011;4099;52.684;9.918;2022-08-27T15:11:45;5.57;;;2.47;;
8113;SDS011;4099;52.684;9.918;2022-08-27T15:16:52;7.50;;;2.10;;
8113;SDS011;4099;52.684;9.918;2022-08-27T15:22:00;4.90;;;2.20;;
8113;SDS011;4099;52.684;9.918;2022-08-27T15:27:06;4.13;;;2.27;;
8113;SDS011;4099;52.684;9.918;2022-08-27T15:32:17;5.80;;;2.47;;
8113;SDS011;4099;52.684;9.918;2022-08-27T15:37:26;4.00;;;2.20;;
8113;SDS011;4099;52.684;9.918;2022-08-27T15:42:33;3.23;;;1.97;;
8113;SDS011;4099;52.684;9.918;2022-08-27T15:47:44;5.60;;;2.17;;
8113;SDS011;4099;52.684;9.918;2022-08-27T15:52:47;5.50;;;2.90;;
8113;SDS011;4099;52.684;9.918;2022-08-27T15:57:58;3.00;;;2.00;;
8113;SDS011;4099;52.684;9.918;2022-08-27T16:03:03;6.47;;;2.20;;
8113;SDS011;4099;52.684;9.918;2022-08-27T16:08:09;5.47;;;2.50;;
8113;SDS011;4099;52.684;9.918;2022-08-27T16:13:12;6.23;;;2.33;;
8113;SDS011;4099;52.684;9.918;2022-08-27T16:18:21;4.37;;;2.07;;
8113;SDS011;4099;52.684;9.918;2022-08-27T16:23:29;5.87;;;2.53;;
8113;SDS011;4099;52.684;9.918;2022-08-27T16:28:32;7.17;;;2.57;;
8113;SDS011;4099;52.684;9.918;2022-08-27T16:33:36;4.83;;;2.50;;
8113;SDS011;4099;52.684;9.918;2022-08-27T16:38:40;6.40;;;2.30;;
8113;SDS011;4099;52.684;9.918;2022-08-27T16:43:46;4.80;;;2.60;;
8113;SDS011;4099;52.684;9.918;2022-08-27T16:48:54;5.77;;;2.30;;
8113;SDS011;4099;52.684;9.918;2022-08-27T16:54:16;4.97;;;2.37;;
8113;SDS011;4099;52.684;9.918;2022-08-27T16:59:19;6.53;;;2.47;;
8113;SDS011;4099;52.684;9.918;2022-08-27T17:04:26;5.50;;;2.30;;
8113;SDS011;4099;52.684;9.918;2022-08-27T17:09:31;6.13;;;2.33;;
8113;SDS011;4099;52.684;9.918;2022-08-27T17:14:37;5.97;;;1.77;;
8113;SDS011;4099;52.684;9.918;2022-08-27T17:19:47;5.07;;;2.20;;
8113;SDS011;4099;52.684;9.918;2022-08-27T17:24:55;5.33;;;2.00;;
8113;SDS011;4099;52.684;9.918;2022-08-27T17:30:00;3.00;;;1.67;;
8113;SDS011;4099;52.684;9.918;2022-08-27T17:35:11;6.03;;;2.10;;
8113;SDS011;4099;52.684;9.918;2022-08-27T17:40:17;3.53;;;1.67;;
8113;SDS011;4099;52.684;9.918;2022-08-27T17:45:23;4.97;;;1.87;;
8113;SDS011;4099;52.684;9.918;2022-08-27T17:50:28;3.50;;;1.80;;
8113;SDS011;4099;52.684;9.918;2022-08-27T17:55:31;4.47;;;1.80;;
8113;SDS011;4099;52.684;9.918;2022-08-27T18:00:39;3.77;;;1.77;;
8113;SDS011;4099;52.684;9.918;2022-08-27T18:05:49;4.97;;;1.60;;
8113;SDS011;4099;52.684;9.918;2022-08-27T18:10:51;4.60;;;1.60;;
8113;SDS011;4099;52.684;9.918;2022-08-27T18:15:57;7.00;;;1.90;;
8113;SDS011;4099;52.684;9.918;2022-08-27T18:21:07;7.17;;;2.27;;
8113;SDS011;4099;52.684;9.918;2022-08-27T18:26:14;3.30;;;1.60;;
8113;SDS011;4099;52.684;9.918;2022-08-27T18:31:24;6.37;;;1.97;;
8113;SDS011;4099;52.684;9.918;2022-08-27T18:36:34;6.23;;;2.40;;
8113;SDS011;4099;52.684;9.918;2022-08-27T18:41:37;4.27;;;1.83;;
8113;SDS011;4099;52.684;9.918;2022-08-27T18:46:50;5.17;;;1.87;;
8113;SDS011;4099;52.684;9.918;2022-08-27T18:51:54;5.60;;;2.03;;
8113;SDS011;4099;52.684;9.918;2022-08-27T18:56:57;6.43;;;2.10;;
8113;SDS011;4099;52.684;9.918;2022-08-27T19:02:02;5.60;;;1.83;;
8113;SDS011;4099;52.684;9.918;2022-08-27T19:07:06;6.47;;;2.40;;
8113;SDS011;4099;52.684;9.918;2022-08-27T19:12:09;5.73;;;2.33;;
8113;SDS011;4099;52.684;9.918;2022-08-27T19:17:17;5.23;;;2.40;;
8113;SDS011;4099;52.684;9.918;2022-08-27T19:22:28;7.67;;;2.73;;
8113;SDS011;4099;52.684;9.918;2022-08-27T19:27:32;7.10;;;2.37;;
8113;SDS011;4099;52.684;9.918;2022-08-27T19:32:40;6.60;;;2.60;;
8113;SDS011;4099;52.684;9.918;2022-08-27T19:37:44;6.90;;;2.67;;
8113;SDS011;4099;52.684;9.918;2022-08-27T19:42:49;6.90;;;3.07;;
8113;SDS011;4099;52.684;9.918;2022-08-27T19:47:54;7.07;;;2.67;;
8113;SDS011;4099;52.684;9.918;2022-08-27T19:53:03;8.93;;;3.20;;
8113;SDS011;4099;52.684;9.918;2022-08-27T19:58:10;8.23;;;3.10;;
8113;SDS011;4099;52.684;9.918;2022-08-27T20:03:17;7.63;;;3.17;;
8113;SDS011;4099;52.684;9.918;2022-08-27T20:08:26;9.87;;;3.30;;
8113;SDS011;4099;52.684;9.918;2022-08-27T20:13:36;8.43;;;3.10;;
8113;SDS011;4099;52.684;9.918;2022-08-27T20:18:40;5.73;;;2.43;;
8113;SDS011;4099;52.684;9.918;2022-08-27T20:23:46;6.17;;;3.03;;
8113;SDS011;4099;52.684;9.918;2022-08-27T20:28:51;6.60;;;2.77;;
8113;SDS011;4099;52.684;9.918;2022-08-27T20:33:54;7.53;;;2.90;;
8113;SDS011;4099;52.684;9.918;2022-08-27T20:39:00;5.13;;;3.00;;
8113;SDS011;4099;52.684;9.918;2022-08-27T20:44:05;5.23;;;3.23;;
8113;SDS011;4099;52.684;9.918;2022-08-27T20:49:11;8.30;;;3.63;;
8113;SDS011;4099;52.684;9.918;2022-08-27T20:54:16;7.63;;;3.20;;
8113;SDS011;4099;52.684;9.918;2022-08-27T20:59:20;6.77;;;3.57;;
8113;SDS011;4099;52.684;9.918;2022-08-27T21:04:42;8.47;;;3.90;;
8113;SDS011;4099;52.684;9.918;2022-08-27T21:09:48;6.13;;;3.57;;
8113;SDS011;4099;52.684;9.918;2022-08-27T21:14:52;9.37;;;3.60;;
8113;SDS011;4099;52.684;9.918;2022-08-27T21:19:57;8.17;;;3.60;;
8113;SDS011;4099;52.684;9.918;2022-08-27T21:25:05;7.13;;;3.50;;
8113;SDS011;4099;52.684;9.918;2022-08-27T21:30:09;9.57;;;5.97;;
8113;SDS011;4099;52.684;9.918;2022-08-27T21:35:13;9.43;;;5.67;;
8113;SDS011;4099;52.684;9.918;2022-08-27T21:40:22;10.63;;;4.17;;
8113;SDS011;4099;52.684;9.918;2022-08-27T21:45:29;6.37;;;3.33;;
8113;SDS011;4099;52.684;9.918;2022-08-27T21:50:33;7.87;;;3.60;;
8113;SDS011;4099;52.684;9.918;2022-08-27T21:55:38;9.73;;;3.87;;
8113;SDS011;4099;52.684;9.918;2022-08-27T22:00:43;10.40;;;3.60;;
8113;SDS011;4099;52.684;9.918;2022-08-27T22:05:50;8.80;;;3.53;;
8113;SDS011;4099;52.684;9.918;2022-08-27T22:10:59;9.93;;;3.80;;
8113;SDS011;4099;52.684;9.918;2022-08-27T22:16:03;8.17;;;3.60;;
8113;SDS011;4099;52.684;9.918;2022-08-27T22:21:07;6.83;;;3.27;;
8113;SDS011;4099;52.684;9.918;2022-08-27T22:26:14;8.00;;;3.50;;
8113;SDS011;4099;52.684;9.918;2022-08-27T22:31:17;7.73;;;3.20;;
8113;SDS011;4099;52.684;9.918;2022-08-27T22:36:24;9.43;;;4.07;;
8113;SDS011;4099;52.684;9.918;2022-08-27T22:41:29;9.60;;;3.47;;
8113;SDS011;4099;52.684;9.918;2022-08-27T22:46:33;6.97;;;3.57;;
8113;SDS011;4099;52.684;9.918;2022-08-27T22:51:37;7.70;;;3.77;;
8113;SDS011;4099;52.684;9.918;2022-08-27T22:56:46;8.27;;;3.40;;
8113;SDS011;4099;52.684;9.918;2022-08-27T23:01:51;8.47;;;3.63;;
8113;SDS011;4099;52.684;9.918;2022-08-27T23:07:00;8.93;;;3.90;;
8113;SDS011;4099;52.684;9.918;2022-08-27T23:12:12;7.13;;;3.30;;
8113;SDS011;4099;52.684;9.918;2022-08-27T23:17:16;11.97;;;4.70;;
8113;SDS011;4099;52.684;9.918;2022-08-27T23:22:29;7.53;;;3.70;;
8113;SDS011;4099;52.684;9.918;2022-08-27T23:27:40;10.77;;;3.90;;
8113;SDS011;4099;52.684;9.918;2022-08-27T23:32:43;11.00;;;4.10;;
8113;SDS011;4099;52.684;9.918;2022-08-27T23:37:49;6.97;;;3.90;;
8113;SDS011;4099;52.684;9.918;2022-08-27T23:42:56;10.27;;;4.33;;
8113;SDS011;4099;52.684;9.918;2022-08-27T23:47:59;10.77;;;4.23;;
8113;SDS011;4099;52.684;9.918;2022-08-27T23:53:02;14.47;;;4.33;;
8113;SDS011;4099;52.684;9.918;2022-08-27T23:58:08;10.97;;;4.13;;
